sensor_id;sensor_type;location;lat;lon;timestamp;P1;durP1;ratioP1;P2;durP2;ratioP2
18606;SDS011;9433;42.678;23.360;2022-07-23T00:00:05;9.63;;;5.10;;
18606;SDS011;9433;42.678;23.360;2022-07-23T00:02:33;7.30;;;4.80;;
18606;SDS011;9433;42.678;23.360;2022-07-23T00:05:02;8.10;;;5.07;;
18606;SDS011;9433;42.678;23.360;2022-07-23T00:07:29;5.57;;;4.00;;
18606;SDS011;9433;42.678;23.360;2022-07-23T00:09:56;6.30;;;4.27;;
18606;SDS011;9433;42.678;23.360;2022-07-23T00:12:22;6.43;;;4.60;;
18606;SDS011;9433;42.678;23.360;2022-07-23T00:14:49;6.63;;;4.83;;
18606;SDS011;9433;42.678;23.360;2022-07-23T00:17:16;4.70;;;4.30;;
18606;SDS011;9433;42.678;23.360;2022-07-23T00:19:43;5.17;;;4.07;;
18606;SDS011;9433;42.678;23.360;2022-07-23T00:22:11;5.50;;;4.03;;
18606;SDS011;9433;42.678;23.360;2022-07-23T00:24:38;7.93;;;5.00;;
18606;SDS011;9433;42.678;23.360;2022-07-23T00:27:05;8.20;;;5.10;;
18606;SDS011;9433;42.678;23.360;2022-07-23T00:29:31;5.57;;;4.50;;
18606;SDS011;9433;42.678;23.360;2022-07-23T00:31:58;6.80;;;4.40;;
18606;SDS011;9433;42.678;23.360;2022-07-23T00:34:25;5.27;;;4.50;;
18606;SDS011;9433;42.678;23.360;2022-07-23T00:36:52;5.83;;;4.23;;
18606;SDS011;9433;42.678;23.360;2022-07-23T00:39:20;5.93;;;4.53;;
18606;SDS011;9433;42.678;23.360;2022-07-23T00:41:47;7.30;;;4.50;;
18606;SDS011;9433;42.678;23.360;2022-07-23T00:44:15;6.00;;;3.97;;
18606;SDS011;9433;42.678;23.360;2022-07-23T00:46:47;6.20;;;3.80;;
18606;SDS011;9433;42.678;23.360;2022-07-23T00:49:18;4.67;;;4.00;;
18606;SDS011;9433;42.678;23.360;2022-07-23T00:51:46;4.17;;;3.63;;
18606;SDS011;9433;42.678;23.360;2022-07-23T00:54:13;4.60;;;4.20;;
18606;SDS011;9433;42.678;23.360;2022-07-23T00:56:42;4.30;;;3.90;;
18606;SDS011;9433;42.678;23.360;2022-07-23T00:59:09;6.33;;;4.10;;
18606;SDS011;9433;42.678;23.360;2022-07-23T01:01:36;5.43;;;4.50;;
18606;SDS011;9433;42.678;23.360;2022-07-23T01:04:03;6.10;;;4.57;;
18606;SDS011;9433;42.678;23.360;2022-07-23T01:06:30;5.50;;;4.57;;
18606;SDS011;9433;42.678;23.360;2022-07-23T01:09:01;8.80;;;4.20;;
18606;SDS011;9433;42.678;23.360;2022-07-23T01:11:29;5.43;;;4.20;;
18606;SDS011;9433;42.678;23.360;2022-07-23T01:13:59;7.10;;;4.27;;
18606;SDS011;9433;42.678;23.360;2022-07-23T01:16:25;6.33;;;4.37;;
18606;SDS011;9433;42.678;23.360;2022-07-23T01:18:52;4.80;;;4.20;;
18606;SDS011;9433;42.678;23.360;2022-07-23T01:21:19;8.60;;;4.63;;
18606;SDS011;9433;42.678;23.360;2022-07-23T01:23:47;4.57;;;4.17;;
18606;SDS011;9433;42.678;23.360;2022-07-23T01:26:14;7.10;;;4.13;;
18606;SDS011;9433;42.678;23.360;2022-07-23T01:28:42;4.83;;;4.20;;
18606;SDS011;9433;42.678;23.360;2022-07-23T01:31:09;5.07;;;3.90;;
18606;SDS011;9433;42.678;23.360;2022-07-23T01:33:36;4.93;;;4.10;;
18606;SDS011;9433;42.678;23.360;2022-07-23T01:36:03;4.93;;;4.07;;
18606;SDS011;9433;42.678;23.360;2022-07-23T01:38:30;4.80;;;3.77;;
18606;SDS011;9433;42.678;23.360;2022-07-23T01:40:58;5.00;;;4.20;;
18606;SDS011;9433;42.678;23.360;2022-07-23T01:43:25;6.00;;;4.83;;
18606;SDS011;9433;42.678;23.360;2022-07-23T01:45:52;4.03;;;3.63;;
18606;SDS011;9433;42.678;23.360;2022-07-23T01:48:18;5.27;;;4.13;;
18606;SDS011;9433;42.678;23.360;2022-07-23T01:50:45;6.70;;;4.53;;
18606;SDS011;9433;42.678;23.360;2022-07-23T01:53:13;5.93;;;4.77;;
18606;SDS011;9433;42.678;23.360;2022-07-23T01:55:40;4.50;;;3.90;;
18606;SDS011;9433;42.678;23.360;2022-07-23T01:58:08;4.37;;;3.70;;
18606;SDS011;9433;42.678;23.360;2022-07-23T02:00:35;5.00;;;4.00;;
18606;SDS011;9433;42.678;23.360;2022-07-23T02:03:02;5.33;;;4.03;;
18606;SDS011;9433;42.678;23.360;2022-07-23T02:05:29;6.10;;;4.20;;
18606;SDS011;9433;42.678;23.360;2022-07-23T02:07:56;6.27;;;4.80;;
18606;SDS011;9433;42.678;23.360;2022-07-23T02:10:23;6.50;;;4.20;;
18606;SDS011;9433;42.678;23.360;2022-07-23T02:12:50;5.97;;;4.13;;
18606;SDS011;9433;42.678;23.360;2022-07-23T02:15:19;5.77;;;4.10;;
18606;SDS011;9433;42.678;23.360;2022-07-23T02:17:45;5.87;;;4.17;;
18606;SDS011;9433;42.678;23.360;2022-07-23T02:20:12;4.80;;;3.93;;
18606;SDS011;9433;42.678;23.360;2022-07-23T02:22:39;5.37;;;3.80;;
18606;SDS011;9433;42.678;23.360;2022-07-23T02:25:06;7.37;;;4.73;;
18606;SDS011;9433;42.678;23.360;2022-07-23T02:27:33;7.10;;;4.83;;
18606;SDS011;9433;42.678;23.360;2022-07-23T02:30:01;7.23;;;4.57;;
18606;SDS011;9433;42.678;23.360;2022-07-23T02:32:29;5.17;;;3.67;;
18606;SDS011;9433;42.678;23.360;2022-07-23T02:34:56;5.53;;;4.37;;
18606;SDS011;9433;42.678;23.360;2022-07-23T02:37:22;6.33;;;4.63;;
18606;SDS011;9433;42.678;23.360;2022-07-23T02:39:49;7.10;;;4.40;;
18606;SDS011;9433;42.678;23.360;2022-07-23T02:42:16;4.53;;;4.13;;
18606;SDS011;9433;42.678;23.360;2022-07-23T02:44:43;7.13;;;4.20;;
18606;SDS011;9433;42.678;23.360;2022-07-23T02:47:10;5.67;;;4.40;;
18606;SDS011;9433;42.678;23.360;2022-07-23T02:49:38;6.53;;;4.10;;
18606;SDS011;9433;42.678;23.360;2022-07-23T02:52:05;5.03;;;4.00;;
18606;SDS011;9433;42.678;23.360;2022-07-23T02:54:31;6.50;;;4.50;;
18606;SDS011;9433;42.678;23.360;2022-07-23T02:56:58;4.37;;;3.97;;
18606;SDS011;9433;42.678;23.360;2022-07-23T02:59:25;6.13;;;3.73;;
18606;SDS011;9433;42.678;23.360;2022-07-23T03:01:52;4.87;;;3.77;;
18606;SDS011;9433;42.678;23.360;2022-07-23T03:04:18;4.53;;;4.13;;
18606;SDS011;9433;42.678;23.360;2022-07-23T03:06:47;5.73;;;4.90;;
18606;SDS011;9433;42.678;23.360;2022-07-23T03:09:13;5.37;;;4.13;;
18606;SDS011;9433;42.678;23.360;2022-07-23T03:11:41;6.13;;;4.43;;
18606;SDS011;9433;42.678;23.360;2022-07-23T03:14:07;5.63;;;4.50;;
18606;SDS011;9433;42.678;23.360;2022-07-23T03:16:34;5.57;;;3.70;;
18606;SDS011;9433;42.678;23.360;2022-07-23T03:19:01;6.57;;;4.03;;
18606;SDS011;9433;42.678;23.360;2022-07-23T03:21:28;5.33;;;4.23;;
18606;SDS011;9433;42.678;23.360;2022-07-23T03:23:56;4.53;;;4.13;;
18606;SDS011;9433;42.678;23.360;2022-07-23T03:26:23;4.97;;;4.17;;
18606;SDS011;9433;42.678;23.360;2022-07-23T03:28:50;5.90;;;4.00;;
18606;SDS011;9433;42.678;23.360;2022-07-23T03:31:17;6.83;;;4.53;;
18606;SDS011;9433;42.678;23.360;2022-07-23T03:33:44;6.07;;;4.60;;
18606;SDS011;9433;42.678;23.360;2022-07-23T03:36:10;6.47;;;4.90;;
18606;SDS011;9433;42.678;23.360;2022-07-23T03:38:37;9.43;;;5.10;;
18606;SDS011;9433;42.678;23.360;2022-07-23T03:41:05;6.73;;;5.13;;
18606;SDS011;9433;42.678;23.360;2022-07-23T03:43:32;5.73;;;5.13;;
18606;SDS011;9433;42.678;23.360;2022-07-23T03:45:59;8.60;;;5.80;;
18606;SDS011;9433;42.678;23.360;2022-07-23T03:48:26;11.47;;;6.43;;
18606;SDS011;9433;42.678;23.360;2022-07-23T03:50:53;8.47;;;6.10;;
18606;SDS011;9433;42.678;23.360;2022-07-23T03:53:19;10.23;;;6.50;;
18606;SDS011;9433;42.678;23.360;2022-07-23T03:55:46;10.63;;;5.83;;
18606;SDS011;9433;42.678;23.360;2022-07-23T03:58:14;7.47;;;6.23;;
18606;SDS011;9433;42.678;23.360;2022-07-23T04:00:41;10.60;;;6.70;;
18606;SDS011;9433;42.678;23.360;2022-07-23T04:03:08;10.23;;;6.27;;
18606;SDS011;9433;42.678;23.360;2022-07-23T04:05:35;9.73;;;5.93;;
18606;SDS011;9433;42.678;23.360;2022-07-23T04:08:01;8.90;;;6.40;;
18606;SDS011;9433;42.678;23.360;2022-07-23T04:10:28;8.37;;;5.93;;
18606;SDS011;9433;42.678;23.360;2022-07-23T04:12:55;9.03;;;5.83;;
18606;SDS011;9433;42.678;23.360;2022-07-23T04:15:23;7.90;;;6.07;;
18606;SDS011;9433;42.678;23.360;2022-07-23T04:17:50;9.30;;;5.10;;
18606;SDS011;9433;42.678;23.360;2022-07-23T04:20:16;10.90;;;6.17;;
18606;SDS011;9433;42.678;23.360;2022-07-23T04:22:43;9.93;;;6.20;;
18606;SDS011;9433;42.678;23.360;2022-07-23T04:25:10;8.37;;;5.93;;
18606;SDS011;9433;42.678;23.360;2022-07-23T04:27:38;7.57;;;5.77;;
18606;SDS011;9433;42.678;23.360;2022-07-23T04:30:05;6.00;;;5.40;;
18606;SDS011;9433;42.678;23.360;2022-07-23T04:32:35;7.77;;;5.83;;
18606;SDS011;9433;42.678;23.360;2022-07-23T04:35:01;12.23;;;5.73;;
18606;SDS011;9433;42.678;23.360;2022-07-23T04:37:28;6.07;;;5.00;;
18606;SDS011;9433;42.678;23.360;2022-07-23T04:39:55;7.43;;;4.57;;
18606;SDS011;9433;42.678;23.360;2022-07-23T04:42:22;4.67;;;4.27;;
18606;SDS011;9433;42.678;23.360;2022-07-23T04:44:48;8.73;;;4.60;;
18606;SDS011;9433;42.678;23.360;2022-07-23T04:47:15;7.03;;;4.60;;
18606;SDS011;9433;42.678;23.360;2022-07-23T04:49:43;6.43;;;4.67;;
18606;SDS011;9433;42.678;23.360;2022-07-23T04:52:10;7.03;;;5.20;;
18606;SDS011;9433;42.678;23.360;2022-07-23T04:54:37;6.03;;;4.23;;
18606;SDS011;9433;42.678;23.360;2022-07-23T04:57:03;7.27;;;5.27;;
18606;SDS011;9433;42.678;23.360;2022-07-23T04:59:30;6.10;;;5.07;;
18606;SDS011;9433;42.678;23.360;2022-07-23T05:01:57;5.20;;;4.40;;
18606;SDS011;9433;42.678;23.360;2022-07-23T05:04:23;8.10;;;4.90;;
18606;SDS011;9433;42.678;23.360;2022-07-23T05:06:52;5.77;;;4.70;;
18606;SDS011;9433;42.678;23.360;2022-07-23T05:09:18;8.97;;;5.73;;
18606;SDS011;9433;42.678;23.360;2022-07-23T05:11:45;6.70;;;4.60;;
18606;SDS011;9433;42.678;23.360;2022-07-23T05:14:12;5.73;;;4.63;;
18606;SDS011;9433;42.678;23.360;2022-07-23T05:16:39;7.03;;;4.70;;
18606;SDS011;9433;42.678;23.360;2022-07-23T05:19:05;7.33;;;4.97;;
18606;SDS011;9433;42.678;23.360;2022-07-23T05:21:32;6.23;;;5.07;;
18606;SDS011;9433;42.678;23.360;2022-07-23T05:24:00;7.23;;;4.80;;
18606;SDS011;9433;42.678;23.360;2022-07-23T05:26:27;6.70;;;4.60;;
18606;SDS011;9433;42.678;23.360;2022-07-23T05:28:54;6.27;;;5.47;;
18606;SDS011;9433;42.678;23.360;2022-07-23T05:31:21;7.87;;;5.40;;
18606;SDS011;9433;42.678;23.360;2022-07-23T05:33:47;8.93;;;5.10;;
18606;SDS011;9433;42.678;23.360;2022-07-23T05:36:14;7.40;;;5.47;;
18606;SDS011;9433;42.678;23.360;2022-07-23T05:38:41;7.70;;;5.13;;
18606;SDS011;9433;42.678;23.360;2022-07-23T05:41:09;9.13;;;5.27;;
18606;SDS011;9433;42.678;23.360;2022-07-23T05:43:36;6.83;;;5.60;;
18606;SDS011;9433;42.678;23.360;2022-07-23T05:46:03;6.30;;;4.93;;
18606;SDS011;9433;42.678;23.360;2022-07-23T05:48:29;8.03;;;5.20;;
18606;SDS011;9433;42.678;23.360;2022-07-23T05:50:56;8.73;;;5.33;;
18606;SDS011;9433;42.678;23.360;2022-07-23T05:53:23;9.00;;;5.43;;
18606;SDS011;9433;42.678;23.360;2022-07-23T05:55:50;9.60;;;5.47;;
18606;SDS011;9433;42.678;23.360;2022-07-23T05:58:18;8.97;;;5.80;;
18606;SDS011;9433;42.678;23.360;2022-07-23T06:00:45;8.00;;;5.33;;
18606;SDS011;9433;42.678;23.360;2022-07-23T06:03:12;7.07;;;5.40;;
18606;SDS011;9433;42.678;23.360;2022-07-23T06:05:38;5.67;;;5.00;;
18606;SDS011;9433;42.678;23.360;2022-07-23T06:08:05;5.77;;;5.07;;
18606;SDS011;9433;42.678;23.360;2022-07-23T06:10:32;9.80;;;5.27;;
18606;SDS011;9433;42.678;23.360;2022-07-23T06:12:59;6.00;;;5.17;;
18606;SDS011;9433;42.678;23.360;2022-07-23T06:15:27;5.67;;;4.80;;
18606;SDS011;9433;42.678;23.360;2022-07-23T06:17:54;7.20;;;5.73;;
18606;SDS011;9433;42.678;23.360;2022-07-23T06:20:21;6.73;;;5.43;;
18606;SDS011;9433;42.678;23.360;2022-07-23T06:22:48;6.50;;;5.20;;
18606;SDS011;9433;42.678;23.360;2022-07-23T06:25:14;9.73;;;5.57;;
18606;SDS011;9433;42.678;23.360;2022-07-23T06:27:42;10.93;;;4.90;;
18606;SDS011;9433;42.678;23.360;2022-07-23T06:30:09;6.70;;;5.57;;
18606;SDS011;9433;42.678;23.360;2022-07-23T06:32:38;9.77;;;5.27;;
18606;SDS011;9433;42.678;23.360;2022-07-23T06:35:05;6.27;;;5.50;;
18606;SDS011;9433;42.678;23.360;2022-07-23T06:37:32;7.60;;;5.10;;
18606;SDS011;9433;42.678;23.360;2022-07-23T06:39:59;6.17;;;5.27;;
18606;SDS011;9433;42.678;23.360;2022-07-23T06:42:26;7.47;;;4.93;;
18606;SDS011;9433;42.678;23.360;2022-07-23T06:44:52;7.97;;;4.93;;
18606;SDS011;9433;42.678;23.360;2022-07-23T06:47:19;7.83;;;5.43;;
18606;SDS011;9433;42.678;23.360;2022-07-23T06:49:47;9.20;;;4.90;;
18606;SDS011;9433;42.678;23.360;2022-07-23T06:52:14;6.37;;;5.70;;
18606;SDS011;9433;42.678;23.360;2022-07-23T06:54:41;8.57;;;5.47;;
18606;SDS011;9433;42.678;23.360;2022-07-23T06:57:08;8.20;;;5.33;;
18606;SDS011;9433;42.678;23.360;2022-07-23T06:59:34;7.57;;;5.33;;
18606;SDS011;9433;42.678;23.360;2022-07-23T07:02:05;7.27;;;5.17;;
18606;SDS011;9433;42.678;23.360;2022-07-23T07:04:32;6.73;;;5.30;;
18606;SDS011;9433;42.678;23.360;2022-07-23T07:07:00;8.10;;;5.40;;
18606;SDS011;9433;42.678;23.360;2022-07-23T07:09:27;10.40;;;5.63;;
18606;SDS011;9433;42.678;23.360;2022-07-23T07:11:53;5.90;;;5.03;;
18606;SDS011;9433;42.678;23.360;2022-07-23T07:14:20;5.63;;;4.53;;
18606;SDS011;9433;42.678;23.360;2022-07-23T07:16:47;6.55;;;4.47;;
18606;SDS011;9433;42.678;23.360;2022-07-23T07:19:14;5.50;;;4.40;;
18606;SDS011;9433;42.678;23.360;2022-07-23T07:21:40;7.15;;;4.53;;
18606;SDS011;9433;42.678;23.360;2022-07-23T07:24:09;5.85;;;4.20;;
18606;SDS011;9433;42.678;23.360;2022-07-23T07:26:35;5.63;;;5.03;;
18606;SDS011;9433;42.678;23.360;2022-07-23T07:29:03;7.85;;;4.57;;
18606;SDS011;9433;42.678;23.360;2022-07-23T07:31:30;7.60;;;5.70;;
18606;SDS011;9433;42.678;23.360;2022-07-23T07:33:57;5.70;;;4.68;;
18606;SDS011;9433;42.678;23.360;2022-07-23T07:36:24;7.60;;;4.30;;
18606;SDS011;9433;42.678;23.360;2022-07-23T07:38:51;6.70;;;5.18;;
18606;SDS011;9433;42.678;23.360;2022-07-23T07:41:19;6.65;;;4.80;;
18606;SDS011;9433;42.678;23.360;2022-07-23T07:43:48;4.75;;;4.32;;
18606;SDS011;9433;42.678;23.360;2022-07-23T07:46:15;7.85;;;5.10;;
18606;SDS011;9433;42.678;23.360;2022-07-23T07:48:42;7.25;;;5.07;;
18606;SDS011;9433;42.678;23.360;2022-07-23T07:51:09;7.18;;;4.90;;
18606;SDS011;9433;42.678;23.360;2022-07-23T07:53:36;7.65;;;5.35;;
18606;SDS011;9433;42.678;23.360;2022-07-23T07:56:03;8.32;;;5.50;;
18606;SDS011;9433;42.678;23.360;2022-07-23T07:58:31;7.55;;;5.63;;
18606;SDS011;9433;42.678;23.360;2022-07-23T08:00:58;7.07;;;5.22;;
18606;SDS011;9433;42.678;23.360;2022-07-23T08:03:25;8.52;;;5.25;;
18606;SDS011;9433;42.678;23.360;2022-07-23T08:05:52;6.47;;;4.90;;
18606;SDS011;9433;42.678;23.360;2022-07-23T08:08:19;8.27;;;5.22;;
18606;SDS011;9433;42.678;23.360;2022-07-23T08:10:45;7.45;;;5.15;;
18606;SDS011;9433;42.678;23.360;2022-07-23T08:13:13;6.72;;;5.35;;
18606;SDS011;9433;42.678;23.360;2022-07-23T08:15:42;6.97;;;5.65;;
18606;SDS011;9433;42.678;23.360;2022-07-23T08:18:10;6.50;;;5.22;;
18606;SDS011;9433;42.678;23.360;2022-07-23T08:20:37;6.35;;;5.00;;
18606;SDS011;9433;42.678;23.360;2022-07-23T08:23:04;5.97;;;5.10;;
18606;SDS011;9433;42.678;23.360;2022-07-23T08:25:32;7.70;;;4.72;;
18606;SDS011;9433;42.678;23.360;2022-07-23T08:28:00;7.40;;;5.20;;
18606;SDS011;9433;42.678;23.360;2022-07-23T08:30:29;6.07;;;5.05;;
18606;SDS011;9433;42.678;23.360;2022-07-23T08:32:59;6.28;;;5.60;;
18606;SDS011;9433;42.678;23.360;2022-07-23T08:35:27;6.32;;;4.95;;
18606;SDS011;9433;42.678;23.360;2022-07-23T08:37:55;6.32;;;5.05;;
18606;SDS011;9433;42.678;23.360;2022-07-23T08:40:22;9.88;;;5.40;;
18606;SDS011;9433;42.678;23.360;2022-07-23T08:42:49;7.28;;;4.88;;
18606;SDS011;9433;42.678;23.360;2022-07-23T08:45:17;7.13;;;5.38;;
18606;SDS011;9433;42.678;23.360;2022-07-23T08:47:47;7.18;;;5.70;;
18606;SDS011;9433;42.678;23.360;2022-07-23T08:50:17;5.78;;;5.03;;
18606;SDS011;9433;42.678;23.360;2022-07-23T08:52:44;7.90;;;5.18;;
18606;SDS011;9433;42.678;23.360;2022-07-23T08:55:10;7.75;;;5.05;;
18606;SDS011;9433;42.678;23.360;2022-07-23T08:57:38;8.18;;;5.25;;
18606;SDS011;9433;42.678;23.360;2022-07-23T09:00:05;8.55;;;5.72;;
18606;SDS011;9433;42.678;23.360;2022-07-23T09:02:38;5.93;;;4.75;;
18606;SDS011;9433;42.678;23.360;2022-07-23T09:05:05;6.15;;;5.13;;
18606;SDS011;9433;42.678;23.360;2022-07-23T09:07:34;6.10;;;5.20;;
18606;SDS011;9433;42.678;23.360;2022-07-23T09:10:10;6.97;;;5.07;;
18606;SDS011;9433;42.678;23.360;2022-07-23T09:12:37;6.75;;;4.97;;
18606;SDS011;9433;42.678;23.360;2022-07-23T09:15:05;6.20;;;5.25;;
18606;SDS011;9433;42.678;23.360;2022-07-23T09:17:36;5.55;;;4.85;;
18606;SDS011;9433;42.678;23.360;2022-07-23T09:20:08;7.30;;;4.80;;
18606;SDS011;9433;42.678;23.360;2022-07-23T09:22:38;10.80;;;5.00;;
18606;SDS011;9433;42.678;23.360;2022-07-23T09:25:11;8.27;;;5.15;;
18606;SDS011;9433;42.678;23.360;2022-07-23T09:27:47;6.68;;;5.43;;
18606;SDS011;9433;42.678;23.360;2022-07-23T09:30:19;6.28;;;4.40;;
18606;SDS011;9433;42.678;23.360;2022-07-23T09:35:43;11.65;;;4.75;;
18606;SDS011;9433;42.678;23.360;2022-07-23T09:38:16;5.00;;;4.55;;
18606;SDS011;9433;42.678;23.360;2022-07-23T09:40:44;5.45;;;4.57;;
18606;SDS011;9433;42.678;23.360;2022-07-23T09:43:12;5.47;;;4.43;;
18606;SDS011;9433;42.678;23.360;2022-07-23T09:45:40;4.70;;;4.00;;
18606;SDS011;9433;42.678;23.360;2022-07-23T09:48:10;7.35;;;4.53;;
18606;SDS011;9433;42.678;23.360;2022-07-23T09:50:38;6.28;;;4.22;;
18606;SDS011;9433;42.678;23.360;2022-07-23T09:53:05;7.13;;;4.68;;
18606;SDS011;9433;42.678;23.360;2022-07-23T09:55:34;4.70;;;4.20;;
18606;SDS011;9433;42.678;23.360;2022-07-23T09:58:03;4.88;;;3.85;;
18606;SDS011;9433;42.678;23.360;2022-07-23T10:00:31;5.82;;;4.93;;
18606;SDS011;9433;42.678;23.360;2022-07-23T10:02:58;5.30;;;4.30;;
18606;SDS011;9433;42.678;23.360;2022-07-23T10:05:26;5.72;;;4.05;;
18606;SDS011;9433;42.678;23.360;2022-07-23T10:07:53;5.60;;;4.30;;
18606;SDS011;9433;42.678;23.360;2022-07-23T10:10:21;6.10;;;4.20;;
18606;SDS011;9433;42.678;23.360;2022-07-23T10:12:54;8.35;;;4.53;;
18606;SDS011;9433;42.678;23.360;2022-07-23T10:15:34;5.85;;;4.50;;
18606;SDS011;9433;42.678;23.360;2022-07-23T10:18:01;5.07;;;3.80;;
18606;SDS011;9433;42.678;23.360;2022-07-23T10:20:28;9.73;;;4.68;;
18606;SDS011;9433;42.678;23.360;2022-07-23T10:22:57;5.15;;;4.38;;
18606;SDS011;9433;42.678;23.360;2022-07-23T10:25:30;6.78;;;3.85;;
18606;SDS011;9433;42.678;23.360;2022-07-23T10:28:24;6.47;;;4.03;;
18606;SDS011;9433;42.678;23.360;2022-07-23T10:31:09;5.78;;;4.35;;
18606;SDS011;9433;42.678;23.360;2022-07-23T10:33:50;3.95;;;3.60;;
18606;SDS011;9433;42.678;23.360;2022-07-23T10:36:23;5.50;;;3.85;;
18606;SDS011;9433;42.678;23.360;2022-07-23T10:39:03;6.47;;;3.67;;
18606;SDS011;9433;42.678;23.360;2022-07-23T10:41:35;5.35;;;3.95;;
18606;SDS011;9433;42.678;23.360;2022-07-23T10:44:11;6.05;;;3.95;;
18606;SDS011;9433;42.678;23.360;2022-07-23T10:49:39;6.32;;;4.18;;
18606;SDS011;9433;42.678;23.360;2022-07-23T10:52:16;6.55;;;4.28;;
18606;SDS011;9433;42.678;23.360;2022-07-23T10:54:48;4.32;;;3.92;;
18606;SDS011;9433;42.678;23.360;2022-07-23T10:57:16;4.35;;;3.95;;
18606;SDS011;9433;42.678;23.360;2022-07-23T11:02:52;5.25;;;3.78;;
18606;SDS011;9433;42.678;23.360;2022-07-23T11:05:21;6.70;;;4.10;;
18606;SDS011;9433;42.678;23.360;2022-07-23T11:10:41;3.58;;;3.28;;
18606;SDS011;9433;42.678;23.360;2022-07-23T11:19:07;8.13;;;4.13;;
18606;SDS011;9433;42.678;23.360;2022-07-23T11:21:44;5.55;;;3.35;;
18606;SDS011;9433;42.678;23.360;2022-07-23T11:24:24;8.85;;;4.28;;
18606;SDS011;9433;42.678;23.360;2022-07-23T11:26:58;7.30;;;4.18;;
18606;SDS011;9433;42.678;23.360;2022-07-23T11:29:42;5.32;;;3.58;;
18606;SDS011;9433;42.678;23.360;2022-07-23T11:32:30;4.25;;;3.08;;
18606;SDS011;9433;42.678;23.360;2022-07-23T11:35:01;6.00;;;3.50;;
18606;SDS011;9433;42.678;23.360;2022-07-23T11:37:33;6.60;;;3.20;;
18606;SDS011;9433;42.678;23.360;2022-07-23T11:40:03;5.85;;;3.17;;
18606;SDS011;9433;42.678;23.360;2022-07-23T11:42:33;4.28;;;3.28;;
18606;SDS011;9433;42.678;23.360;2022-07-23T11:45:01;6.07;;;3.17;;
18606;SDS011;9433;42.678;23.360;2022-07-23T11:47:29;8.43;;;3.60;;
18606;SDS011;9433;42.678;23.360;2022-07-23T11:49:56;6.75;;;3.10;;
18606;SDS011;9433;42.678;23.360;2022-07-23T11:52:26;5.03;;;2.67;;
18606;SDS011;9433;42.678;23.360;2022-07-23T11:54:54;6.20;;;3.28;;
18606;SDS011;9433;42.678;23.360;2022-07-23T11:57:24;5.53;;;2.90;;
18606;SDS011;9433;42.678;23.360;2022-07-23T11:59:53;7.13;;;2.92;;
18606;SDS011;9433;42.678;23.360;2022-07-23T12:02:22;6.80;;;3.40;;
18606;SDS011;9433;42.678;23.360;2022-07-23T12:04:49;4.03;;;2.95;;
18606;SDS011;9433;42.678;23.360;2022-07-23T12:10:10;9.35;;;3.22;;
18606;SDS011;9433;42.678;23.360;2022-07-23T12:12:39;5.43;;;2.65;;
18606;SDS011;9433;42.678;23.360;2022-07-23T12:15:07;6.32;;;3.15;;
18606;SDS011;9433;42.678;23.360;2022-07-23T12:17:36;5.53;;;2.90;;
18606;SDS011;9433;42.678;23.360;2022-07-23T12:20:06;5.63;;;3.20;;
18606;SDS011;9433;42.678;23.360;2022-07-23T12:22:34;7.95;;;3.92;;
18606;SDS011;9433;42.678;23.360;2022-07-23T12:25:06;7.95;;;3.33;;
18606;SDS011;9433;42.678;23.360;2022-07-23T12:27:40;6.55;;;3.33;;
18606;SDS011;9433;42.678;23.360;2022-07-23T12:30:17;5.88;;;3.53;;
18606;SDS011;9433;42.678;23.360;2022-07-23T12:32:46;7.25;;;3.22;;
18606;SDS011;9433;42.678;23.360;2022-07-23T12:35:16;6.63;;;3.38;;
18606;SDS011;9433;42.678;23.360;2022-07-23T12:37:44;5.70;;;3.35;;
18606;SDS011;9433;42.678;23.360;2022-07-23T12:40:19;8.85;;;3.42;;
18606;SDS011;9433;42.678;23.360;2022-07-23T12:42:48;6.25;;;3.30;;
18606;SDS011;9433;42.678;23.360;2022-07-23T12:45:16;7.53;;;3.50;;
18606;SDS011;9433;42.678;23.360;2022-07-23T12:47:50;11.95;;;3.65;;
18606;SDS011;9433;42.678;23.360;2022-07-23T12:50:35;7.13;;;3.28;;
18606;SDS011;9433;42.678;23.360;2022-07-23T12:53:05;5.40;;;3.72;;
18606;SDS011;9433;42.678;23.360;2022-07-23T12:55:35;8.95;;;4.18;;
18606;SDS011;9433;42.678;23.360;2022-07-23T12:58:03;5.75;;;3.50;;
18606;SDS011;9433;42.678;23.360;2022-07-23T13:00:31;3.58;;;3.22;;
18606;SDS011;9433;42.678;23.360;2022-07-23T13:02:58;3.65;;;2.97;;
18606;SDS011;9433;42.678;23.360;2022-07-23T13:05:25;9.70;;;3.78;;
18606;SDS011;9433;42.678;23.360;2022-07-23T13:07:52;8.73;;;3.88;;
18606;SDS011;9433;42.678;23.360;2022-07-23T13:10:19;5.25;;;2.95;;
18606;SDS011;9433;42.678;23.360;2022-07-23T13:12:47;9.68;;;3.67;;
18606;SDS011;9433;42.678;23.360;2022-07-23T13:15:14;7.65;;;3.60;;
18606;SDS011;9433;42.678;23.360;2022-07-23T13:17:41;7.35;;;3.38;;
18606;SDS011;9433;42.678;23.360;2022-07-23T13:20:10;6.38;;;3.92;;
18606;SDS011;9433;42.678;23.360;2022-07-23T13:22:37;4.82;;;3.22;;
18606;SDS011;9433;42.678;23.360;2022-07-23T13:25:04;7.43;;;3.53;;
18606;SDS011;9433;42.678;23.360;2022-07-23T13:27:32;8.02;;;3.47;;
18606;SDS011;9433;42.678;23.360;2022-07-23T13:30:00;4.93;;;3.22;;
18606;SDS011;9433;42.678;23.360;2022-07-23T13:32:27;7.40;;;3.00;;
18606;SDS011;9433;42.678;23.360;2022-07-23T13:34:53;7.95;;;3.10;;
18606;SDS011;9433;42.678;23.360;2022-07-23T13:37:20;7.00;;;3.45;;
18606;SDS011;9433;42.678;23.360;2022-07-23T13:39:47;9.50;;;3.75;;
18606;SDS011;9433;42.678;23.360;2022-07-23T13:42:14;9.45;;;3.42;;
18606;SDS011;9433;42.678;23.360;2022-07-23T13:44:41;8.07;;;3.80;;
18606;SDS011;9433;42.678;23.360;2022-07-23T13:47:09;6.40;;;3.10;;
18606;SDS011;9433;42.678;23.360;2022-07-23T13:49:36;9.10;;;3.80;;
18606;SDS011;9433;42.678;23.360;2022-07-23T13:52:03;7.32;;;3.58;;
18606;SDS011;9433;42.678;23.360;2022-07-23T13:54:30;8.07;;;3.35;;
18606;SDS011;9433;42.678;23.360;2022-07-23T13:56:57;4.40;;;2.70;;
18606;SDS011;9433;42.678;23.360;2022-07-23T13:59:25;7.32;;;2.95;;
18606;SDS011;9433;42.678;23.360;2022-07-23T14:01:51;7.40;;;3.55;;
18606;SDS011;9433;42.678;23.360;2022-07-23T14:04:19;7.80;;;3.60;;
18606;SDS011;9433;42.678;23.360;2022-07-23T14:06:47;4.68;;;3.03;;
18606;SDS011;9433;42.678;23.360;2022-07-23T14:09:14;8.57;;;4.00;;
18606;SDS011;9433;42.678;23.360;2022-07-23T14:11:41;11.27;;;3.92;;
18606;SDS011;9433;42.678;23.360;2022-07-23T14:14:08;6.78;;;3.55;;
18606;SDS011;9433;42.678;23.360;2022-07-23T14:16:34;10.20;;;3.63;;
18606;SDS011;9433;42.678;23.360;2022-07-23T14:19:01;4.78;;;3.03;;
18606;SDS011;9433;42.678;23.360;2022-07-23T14:21:29;7.30;;;3.35;;
18606;SDS011;9433;42.678;23.360;2022-07-23T14:23:56;7.65;;;2.90;;
18606;SDS011;9433;42.678;23.360;2022-07-23T14:26:23;4.20;;;2.45;;
18606;SDS011;9433;42.678;23.360;2022-07-23T14:28:50;6.40;;;3.22;;
18606;SDS011;9433;42.678;23.360;2022-07-23T14:31:17;4.88;;;3.40;;
18606;SDS011;9433;42.678;23.360;2022-07-23T14:33:43;5.97;;;3.15;;
18606;SDS011;9433;42.678;23.360;2022-07-23T14:36:10;8.75;;;3.35;;
18606;SDS011;9433;42.678;23.360;2022-07-23T14:38:38;4.95;;;3.13;;
18606;SDS011;9433;42.678;23.360;2022-07-23T14:41:05;5.90;;;3.35;;
18606;SDS011;9433;42.678;23.360;2022-07-23T14:43:33;4.35;;;2.97;;
18606;SDS011;9433;42.678;23.360;2022-07-23T14:46:00;8.15;;;3.40;;
18606;SDS011;9433;42.678;23.360;2022-07-23T14:48:26;5.05;;;3.30;;
18606;SDS011;9433;42.678;23.360;2022-07-23T14:50:53;6.72;;;3.20;;
18606;SDS011;9433;42.678;23.360;2022-07-23T14:53:20;9.90;;;3.72;;
18606;SDS011;9433;42.678;23.360;2022-07-23T14:55:48;5.00;;;2.80;;
18606;SDS011;9433;42.678;23.360;2022-07-23T14:58:15;3.58;;;2.95;;
18606;SDS011;9433;42.678;23.360;2022-07-23T15:00:42;7.10;;;3.10;;
18606;SDS011;9433;42.678;23.360;2022-07-23T15:03:09;7.72;;;3.25;;
18606;SDS011;9433;42.678;23.360;2022-07-23T15:05:36;7.50;;;3.28;;
18606;SDS011;9433;42.678;23.360;2022-07-23T15:08:03;5.65;;;3.42;;
18606;SDS011;9433;42.678;23.360;2022-07-23T15:10:30;11.02;;;3.50;;
18606;SDS011;9433;42.678;23.360;2022-07-23T15:12:58;5.00;;;3.08;;